Time;durP1;ratioP1;P1;durP2;ratioP2;P2;SDS_P1;SDS_P2;PMS_P1;PMS_P2;Temp;Humidity;BMP_temperature;BMP_pressure;BME280_temperature;BME280_humidity;BME280_pressure;Samples;Min_cycle;Max_cycle;Signal;HPM_P1;HPM_P2
2021/12/23 00:00:55;;;;;;;9.17;6.33;;;;;;;-6.40;68.33;98398.06;4937868;29;20052;-82
2021/12/23 00:03:21;;;;;;;8.98;5.47;;;;;;;-6.35;67.71;98391.00;4922589;29;20134;-81
2021/12/23 00:05:47;;;;;;;7.93;5.30;;;;;;;-6.34;67.81;98400.50;4907614;29;20043;-82
2021/12/23 00:08:13;;;;;;;10.20;6.18;;;;;;;-6.37;68.23;98392.78;4923319;29;20072;-83
2021/12/23 00:10:40;;;;;;;10.32;6.10;;;;;;;-6.42;68.13;98394.66;4923297;29;20048;-83
2021/12/23 00:13:06;;;;;;;9.27;6.18;;;;;;;-6.31;68.58;98405.63;4922482;29;20044;-82
2021/12/23 00:15:39;;;;;;;8.88;5.70;;;;;;;-6.32;68.33;98403.88;4890603;29;20051;-81
2021/12/23 00:18:40;;;;;;;8.77;5.53;;;;;;;-6.32;68.68;98405.66;4938129;29;20100;-82
2021/12/23 00:23:53;;;;;;;10.32;5.53;;;;;;;-6.32;68.94;98406.50;4937889;29;20399;-82
2021/12/23 00:26:19;;;;;;;10.65;6.00;;;;;;;-6.30;69.11;98399.50;4921897;29;20051;-82
2021/12/23 00:28:45;;;;;;;13.02;7.32;;;;;;;-6.20;68.85;98394.94;4937703;29;20119;-82
2021/12/23 00:31:11;;;;;;;11.65;5.88;;;;;;;-6.32;69.23;98400.44;4937597;29;20047;-82
2021/12/23 00:33:39;;;;;;;8.48;5.75;;;;;;;-6.22;69.17;98394.09;4906075;29;20055;-83
2021/12/23 00:36:07;;;;;;;8.13;6.00;;;;;;;-6.13;69.26;98392.09;4921489;29;20056;-82
2021/12/23 00:38:41;;;;;;;7.45;5.25;;;;;;;-6.15;69.00;98386.09;4937493;29;20058;-82
2021/12/23 00:41:08;;;;;;;9.48;5.95;;;;;;;-6.09;68.97;98386.78;4907152;29;20059;-82
2021/12/23 00:43:34;;;;;;;7.80;5.00;;;;;;;-5.96;69.08;98398.56;4890313;29;20047;-83
2021/12/23 00:46:00;;;;;;;7.13;5.05;;;;;;;-5.89;68.52;98394.88;4921440;29;20392;-83
2021/12/23 00:48:27;;;;;;;8.60;5.78;;;;;;;-5.86;68.57;98386.97;4937326;29;20052;-82
2021/12/23 00:50:53;;;;;;;7.97;5.57;;;;;;;-5.86;68.45;98381.78;4938935;29;20090;-81
2021/12/23 00:53:21;;;;;;;9.85;6.28;;;;;;;-5.85;68.60;98383.47;4922610;29;20052;-82
2021/12/23 00:55:52;;;;;;;9.95;6.22;;;;;;;-5.92;68.30;98372.38;4906890;29;20048;-82
2021/12/23 00:58:19;;;;;;;9.15;6.18;;;;;;;-5.99;68.60;98377.84;4936946;29;20186;-82
2021/12/23 01:00:46;;;;;;;9.02;5.97;;;;;;;-5.95;68.47;98374.25;4921454;29;20043;-82
2021/12/23 01:03:12;;;;;;;8.57;5.75;;;;;;;-6.05;69.10;98363.28;4921662;29;20178;-82
2021/12/23 01:05:38;;;;;;;9.23;5.93;;;;;;;-5.97;68.73;98353.50;4937121;29;20083;-82
2021/12/23 01:08:05;;;;;;;7.55;5.47;;;;;;;-5.82;68.96;98356.50;4937202;29;20455;-82
2021/12/23 01:10:31;;;;;;;9.48;5.88;;;;;;;-5.87;68.52;98352.28;4921168;29;20082;-82
2021/12/23 01:13:03;;;;;;;8.43;5.82;;;;;;;-5.97;68.99;98340.47;4937272;29;20133;-81
2021/12/23 01:18:37;;;;;;;10.00;6.22;;;;;;;-5.86;69.12;98351.38;4921145;29;20083;-82
2021/12/23 01:21:03;;;;;;;8.50;5.00;;;;;;;-5.91;69.43;98339.41;4907382;29;20107;-81
2021/12/23 01:23:30;;;;;;;8.00;5.63;;;;;;;-5.86;69.36;98332.31;4937121;29;20449;-81
2021/12/23 01:25:56;;;;;;;11.70;4.85;;;;;;;-5.77;69.65;98333.78;4936597;29;20047;-82
2021/12/23 01:28:22;;;;;;;7.60;4.97;;;;;;;-5.83;69.66;98311.38;4921168;29;20039;-82
2021/12/23 01:30:48;;;;;;;7.13;4.88;;;;;;;-5.63;69.23;98314.25;4936522;29;20090;-81
2021/12/23 01:33:14;;;;;;;10.43;5.07;;;;;;;-5.59;69.25;98324.56;4920777;29;20083;-81
2021/12/23 01:35:40;;;;;;;6.53;4.60;;;;;;;-5.53;69.69;98308.72;4904323;29;20090;-81
2021/12/23 01:38:06;;;;;;;7.80;4.53;;;;;;;-5.56;69.50;98327.06;4937411;29;20415;-82
2021/12/23 01:40:32;;;;;;;7.80;4.95;;;;;;;-5.50;69.21;98335.53;4937034;29;20059;-81
2021/12/23 01:42:58;;;;;;;8.52;5.25;;;;;;;-5.46;69.36;98320.66;4937034;29;20106;-82
2021/12/23 01:45:26;;;;;;;5.90;4.45;;;;;;;-5.48;69.18;98322.47;4920430;29;20047;-82
2021/12/23 01:47:53;;;;;;;6.28;4.32;;;;;;;-5.44;69.50;98331.88;4920374;29;20055;-80
2021/12/23 01:50:20;;;;;;;10.55;6.43;;;;;;;-5.42;69.48;98322.25;4904947;29;20053;-82
2021/12/23 01:52:46;;;;;;;11.02;5.60;;;;;;;-5.45;69.53;98320.63;4904781;29;20533;-81
2021/12/23 01:55:12;;;;;;;8.98;5.60;;;;;;;-5.32;69.28;98331.50;4904165;29;20130;-84
2021/12/23 01:57:39;;;;;;;6.53;4.85;;;;;;;-5.25;69.55;98325.19;4920580;29;20044;-84
2021/12/23 02:00:14;;;;;;;8.35;5.03;;;;;;;-5.26;69.50;98318.28;4936125;29;20091;-83
2021/12/23 02:02:41;;;;;;;8.23;5.00;;;;;;;-5.17;69.36;98299.72;4920022;29;20408;-83
2021/12/23 02:05:08;;;;;;;6.72;4.63;;;;;;;-5.23;69.30;98302.56;4904735;29;20055;-83
2021/12/23 02:07:34;;;;;;;7.40;4.53;;;;;;;-5.17;69.19;98297.13;4904620;29;20046;-84
2021/12/23 02:10:00;;;;;;;10.43;5.30;;;;;;;-5.07;69.46;98302.03;4936092;29;20102;-82
2021/12/23 02:12:26;;;;;;;9.10;5.00;;;;;;;-5.02;68.99;98297.50;4904589;29;20055;-83
2021/12/23 02:14:52;;;;;;;8.20;5.22;;;;;;;-5.01;68.50;98307.03;4904717;29;20051;-81
2021/12/23 02:17:18;;;;;;;11.18;5.63;;;;;;;-5.10;68.92;98289.09;4903572;29;20057;-81
2021/12/23 02:19:44;;;;;;;8.10;4.60;;;;;;;-5.26;68.87;98279.19;4935888;29;20458;-82
2021/12/23 02:22:10;;;;;;;10.80;6.70;;;;;;;-5.20;68.95;98302.44;4919945;29;20069;-81
2021/12/23 02:24:37;;;;;;;9.15;5.18;;;;;;;-5.15;69.01;98295.31;4920505;29;20102;-82
2021/12/23 02:27:04;;;;;;;5.97;4.38;;;;;;;-5.04;68.79;98286.28;4936691;29;20043;-81
2021/12/23 02:29:29;;;;;;;7.85;5.13;;;;;;;-5.02;68.66;98295.75;4935841;29;20098;-82
2021/12/23 02:31:56;;;;;;;8.20;5.30;;;;;;;-5.04;68.53;98292.38;4919635;29;20143;-81
2021/12/23 02:34:22;;;;;;;4.88;3.88;;;;;;;-5.07;68.51;98283.81;4935915;29;20491;-83
2021/12/23 02:36:57;;;;;;;7.50;4.85;;;;;;;-5.13;68.42;98293.50;4916370;29;20147;-81
2021/12/23 02:39:23;;;;;;;10.18;5.63;;;;;;;-5.08;68.49;98295.94;4884789;29;20107;-81
2021/12/23 02:41:49;;;;;;;7.97;5.15;;;;;;;-5.11;68.46;98277.84;4884855;29;20083;-83
2021/12/23 02:44:15;;;;;;;8.85;5.18;;;;;;;-5.15;68.21;98289.28;4900299;29;20405;-83
2021/12/23 02:46:41;;;;;;;9.10;5.70;;;;;;;-5.28;68.85;98280.16;4916085;29;20044;-82
2021/12/23 02:49:07;;;;;;;6.72;4.85;;;;;;;-5.15;68.52;98286.66;4915828;29;20524;-83
2021/12/23 02:51:34;;;;;;;6.72;4.85;;;;;;;-5.19;68.74;98278.09;4921280;29;20121;-81
2021/12/23 02:54:00;;;;;;;7.57;5.07;;;;;;;-5.21;68.43;98282.50;4931526;29;20048;-80
2021/12/23 02:56:26;;;;;;;9.25;5.53;;;;;;;-5.16;68.75;98297.97;4926395;29;20098;-82
2021/12/23 02:58:51;;;;;;;5.50;3.70;;;;;;;-5.35;68.70;98315.97;4900542;29;20496;-83
2021/12/23 03:01:19;;;;;;;10.38;5.43;;;;;;;-5.67;69.66;98312.63;4916280;29;20131;-83
2021/12/23 03:03:45;;;;;;;6.82;4.82;;;;;;;-5.85;70.63;98344.44;4884593;29;20047;-83
2021/12/23 03:06:11;;;;;;;9.63;5.82;;;;;;;-6.08;71.17;98315.69;4900033;29;20457;-83
2021/12/23 03:08:40;;;;;;;14.80;7.03;;;;;;;-6.29;71.86;98320.59;4900123;29;20179;-83
2021/12/23 03:11:07;;;;;;;13.20;7.22;;;;;;;-6.30;71.28;98324.09;4915959;29;20135;-83
2021/12/23 03:13:33;;;;;;;11.40;6.18;;;;;;;-6.50;72.84;98326.44;4884358;29;20094;-83
2021/12/23 03:15:59;;;;;;;13.80;6.40;;;;;;;-6.52;69.77;98310.84;4916088;29;20055;-82
2021/12/23 03:18:26;;;;;;;11.85;5.68;;;;;;;-6.56;68.05;98318.78;4916092;29;20522;-81
2021/12/23 03:20:52;;;;;;;8.05;5.55;;;;;;;-6.70;67.87;98326.94;4885119;29;20448;-82
2021/12/23 03:23:18;;;;;;;8.55;4.97;;;;;;;-6.84;67.66;98314.34;4899805;29;20075;-83
2021/12/23 03:25:44;;;;;;;8.35;5.05;;;;;;;-6.95;67.59;98326.75;4900119;29;20466;-83
2021/12/23 03:28:10;;;;;;;4.70;3.28;;;;;;;-6.98;66.83;98313.84;4899473;29;20040;-83
2021/12/23 03:30:36;;;;;;;6.05;4.10;;;;;;;-7.11;66.79;98332.34;4914708;29;20146;-82
2021/12/23 03:33:02;;;;;;;8.30;4.63;;;;;;;-7.30;67.40;98323.28;4915363;29;20052;-82
2021/12/23 03:35:28;;;;;;;6.72;5.00;;;;;;;-7.47;67.48;98344.47;4916314;29;20091;-80
2021/12/23 03:37:54;;;;;;;5.55;3.92;;;;;;;-7.60;67.69;98343.94;4919008;29;20179;-81
2021/12/23 03:40:21;;;;;;;6.95;4.35;;;;;;;-7.59;67.48;98339.59;4918411;29;20047;-82
2021/12/23 03:42:47;;;;;;;6.18;3.80;;;;;;;-7.54;67.69;98342.91;4902245;29;20047;-81
2021/12/23 03:45:13;;;;;;;10.63;5.32;;;;;;;-7.59;67.44;98350.81;4934280;29;20090;-83
2021/12/23 03:47:39;;;;;;;7.35;4.55;;;;;;;-7.62;67.33;98340.50;4934124;29;20443;-82
2021/12/23 03:50:05;;;;;;;7.70;4.55;;;;;;;-7.82;67.40;98342.72;4918641;29;20043;-82
2021/12/23 03:52:32;;;;;;;8.13;4.60;;;;;;;-7.90;67.39;98336.81;4918595;29;20036;-82
2021/12/23 03:54:58;;;;;;;5.65;3.83;;;;;;;-7.98;67.62;98375.03;4934640;29;20083;-83
2021/12/23 03:57:24;;;;;;;7.28;4.28;;;;;;;-7.92;67.37;98372.31;4919030;29;21036;-80
2021/12/23 03:59:50;;;;;;;8.57;4.78;;;;;;;-8.02;67.14;98370.81;4918703;29;20047;-81
2021/12/23 04:02:16;;;;;;;11.85;4.05;;;;;;;-7.98;66.89;98382.81;4903390;29;20451;-82
2021/12/23 04:04:42;;;;;;;4.22;2.92;;;;;;;-8.22;66.73;98385.03;4934433;29;20047;-82
2021/12/23 04:07:08;;;;;;;9.27;3.85;;;;;;;-8.29;67.36;98367.03;4934174;29;20110;-82
2021/12/23 04:09:34;;;;;;;8.43;4.93;;;;;;;-8.32;66.43;98378.31;4918205;29;20051;-81
2021/12/23 04:12:00;;;;;;;5.82;4.18;;;;;;;-8.45;66.18;98374.31;4934994;29;20042;-82
2021/12/23 04:14:26;;;;;;;8.32;4.88;;;;;;;-8.46;66.52;98388.13;4933856;29;20047;-79
2021/12/23 04:16:52;;;;;;;9.68;5.00;;;;;;;-8.52;66.33;98386.53;4902613;29;20075;-81
2021/12/23 04:19:18;;;;;;;9.20;5.32;;;;;;;-8.71;66.89;98390.34;4934407;29;20066;-86
2021/12/23 04:21:44;;;;;;;9.32;6.25;;;;;;;-8.84;67.41;98406.09;4902698;29;20055;-82
2021/12/23 04:24:10;;;;;;;12.70;6.00;;;;;;;-9.01;67.41;98422.81;4902923;29;20079;-82
2021/12/23 04:26:37;;;;;;;6.18;4.78;;;;;;;-9.24;65.84;98436.13;4918797;29;20478;-82
2021/12/23 04:29:04;;;;;;;10.63;4.78;;;;;;;-8.12;76.62;98430.66;4934171;29;20134;-88
2021/12/23 04:31:30;;;;;;;10.50;5.97;;;;;;;-8.24;66.23;98430.00;4934475;29;20090;-84
2021/12/23 04:33:56;;;;;;;10.40;5.60;;;;;;;-8.76;63.57;98433.59;4934856;29;20122;-80
2021/12/23 04:36:25;;;;;;;8.60;5.30;;;;;;;-8.96;64.04;98444.28;4918314;29;20515;-84
2021/12/23 04:38:51;;;;;;;11.43;6.57;;;;;;;-9.10;64.48;98455.72;4934322;29;20052;-82
2021/12/23 04:41:17;;;;;;;7.65;4.38;;;;;;;-9.20;64.95;98464.50;4919891;29;20044;-80
2021/12/23 04:43:43;;;;;;;19.10;7.55;;;;;;;-9.41;64.85;98449.28;4921918;29;20496;-81
2021/12/23 04:46:10;;;;;;;11.85;5.82;;;;;;;-9.55;64.90;98452.94;4937753;29;20048;-81
2021/12/23 04:48:37;;;;;;;7.72;4.78;;;;;;;-9.66;64.35;98470.34;4953127;29;20067;-80
2021/12/23 04:51:02;;;;;;;7.55;5.03;;;;;;;-9.75;64.92;98470.44;4921485;29;20043;-79
2021/12/23 04:53:29;;;;;;;7.25;3.80;;;;;;;-9.89;64.95;98482.69;4921354;29;20459;-82
2021/12/23 04:55:55;;;;;;;9.25;5.22;;;;;;;-10.11;65.36;98451.94;4921799;29;20075;-86
2021/12/23 04:58:21;;;;;;;9.10;4.35;;;;;;;-10.23;65.07;98436.56;4905252;29;20134;-79
2021/12/23 05:00:48;;;;;;;8.55;4.47;;;;;;;-10.46;65.46;98447.16;4936567;29;20187;-79
2021/12/23 05:03:18;;;;;;;4.05;3.33;;;;;;;-10.74;65.48;98469.00;4921434;29;20171;-82
2021/12/23 05:05:45;;;;;;;9.13;4.65;;;;;;;-10.66;65.50;98472.34;4952940;29;20048;-80
2021/12/23 05:08:11;;;;;;;8.98;4.03;;;;;;;-10.80;65.83;98477.63;4936947;29;20518;-80
2021/12/23 05:10:37;;;;;;;7.20;4.97;;;;;;;-10.89;66.05;98490.63;4936638;29;20511;-77
2021/12/23 05:13:04;;;;;;;12.73;4.45;;;;;;;-10.91;65.69;98476.88;4920251;29;20099;-81
2021/12/23 05:15:30;;;;;;;16.50;5.28;;;;;;;-10.99;65.45;98488.97;4936850;29;20134;-78
2021/12/23 05:17:56;;;;;;;7.78;4.05;;;;;;;-11.25;64.60;98498.59;4873271;29;20048;-79
2021/12/23 05:20:22;;;;;;;9.57;3.17;;;;;;;-11.50;65.50;98523.72;4937467;29;20039;-80
2021/12/23 05:22:48;;;;;;;5.97;4.25;;;;;;;-11.57;65.39;98542.66;4920200;29;20495;-77
2021/12/23 05:25:14;;;;;;;10.27;4.78;;;;;;;-11.72;65.75;98501.47;4936396;29;20081;-79
2021/12/23 05:27:40;;;;;;;8.77;5.10;;;;;;;-11.70;65.79;98498.88;4920442;29;20119;-79
2021/12/23 05:30:08;;;;;;;9.90;5.60;;;;;;;-11.64;65.36;98510.03;4904202;29;20138;-77
2021/12/23 05:32:34;;;;;;;6.55;4.32;;;;;;;-11.71;64.62;98497.16;4951456;29;20183;-79
2021/12/23 05:35:00;;;;;;;7.40;5.25;;;;;;;-11.82;64.59;98499.78;4936050;29;20495;-79
2021/12/23 05:37:26;;;;;;;11.93;6.78;;;;;;;-11.88;65.16;98505.88;4920382;29;20131;-81
2021/12/23 05:39:52;;;;;;;5.15;4.00;;;;;;;-11.89;65.10;98513.59;4888905;29;20047;-80
2021/12/23 05:42:18;;;;;;;13.93;5.00;;;;;;;-12.04;64.33;98517.94;4935874;29;20051;-85
2021/12/23 05:44:44;;;;;;;14.18;6.47;;;;;;;-11.96;64.50;98538.53;4904592;29;20519;-83
2021/12/23 05:47:10;;;;;;;8.00;3.58;;;;;;;-11.89;64.22;98534.22;4954633;29;20593;-81
2021/12/23 05:49:36;;;;;;;8.27;4.47;;;;;;;-11.85;63.51;98541.06;4908120;29;20047;-81
2021/12/23 05:52:04;;;;;;;9.02;3.97;;;;;;;-12.02;62.79;98535.97;4910618;29;20055;-82
2021/12/23 05:54:30;;;;;;;5.15;3.72;;;;;;;-12.19;62.99;98548.91;4919195;29;20142;-86
2021/12/23 05:57:02;;;;;;;10.13;4.55;;;;;;;-12.30;63.08;98558.34;4960036;29;20094;-81
2021/12/23 05:59:32;;;;;;;10.32;6.20;;;;;;;-12.40;63.45;98551.53;4908714;29;20396;-80
2021/12/23 06:01:59;;;;;;;9.52;5.97;;;;;;;-12.42;64.22;98553.22;4906724;29;20043;-82
2021/12/23 06:04:25;;;;;;;13.32;5.03;;;;;;;-12.26;63.78;98549.75;4907866;29;20047;-81
2021/12/23 06:06:51;;;;;;;8.15;4.20;;;;;;;-11.98;67.04;98529.97;4907633;29;20568;-81
2021/12/23 06:09:18;;;;;;;25.38;5.43;;;;;;;-12.04;65.09;98525.66;4923599;29;20101;-83
2021/12/23 06:11:43;;;;;;;14.65;3.60;;;;;;;-12.08;63.78;98560.03;4907492;29;20043;-84
2021/12/23 06:14:10;;;;;;;5.53;3.42;;;;;;;-12.21;63.22;98548.06;4892743;29;20149;-80
2021/12/23 06:16:35;;;;;;;5.38;3.47;;;;;;;-12.31;63.65;98584.97;4939710;29;20142;-81
2021/12/23 06:19:02;;;;;;;4.68;3.42;;;;;;;-12.38;62.90;98547.22;4923532;29;20186;-80
2021/12/23 06:21:30;;;;;;;9.10;5.90;;;;;;;-12.41;62.55;98575.53;4923750;29;20498;-81
2021/12/23 06:23:57;;;;;;;3.17;2.65;;;;;;;-12.33;62.43;98563.53;4908843;29;20142;-82
2021/12/23 06:26:23;;;;;;;20.85;3.47;;;;;;;-12.38;61.68;98554.94;4876632;29;20549;-79
2021/12/23 06:28:49;;;;;;;10.18;4.43;;;;;;;-12.29;61.26;98570.41;4892171;29;20050;-79
2021/12/23 06:31:15;;;;;;;4.05;3.25;;;;;;;-12.17;60.65;98580.66;4923383;29;20134;-82
2021/12/23 06:33:41;;;;;;;8.27;4.78;;;;;;;-12.24;59.99;98589.25;4923424;29;20039;-82
2021/12/23 06:36:07;;;;;;;5.10;3.75;;;;;;;-12.29;60.00;98594.44;4892646;29;20170;-84
2021/12/23 06:38:35;;;;;;;8.30;4.20;;;;;;;-12.32;60.04;98591.00;4957551;29;20057;-81
2021/12/23 06:41:01;;;;;;;8.90;4.53;;;;;;;-12.19;59.73;98587.53;4892956;29;20065;-81
2021/12/23 06:43:28;;;;;;;7.30;4.88;;;;;;;-12.21;59.67;98599.56;4892401;29;20463;-83
2021/12/23 06:45:54;;;;;;;13.30;6.28;;;;;;;-12.30;59.90;98584.09;4875913;29;20115;-78
2021/12/23 06:48:20;;;;;;;7.55;5.07;;;;;;;-12.35;59.84;98570.41;4922180;29;20106;-78
2021/12/23 06:50:46;;;;;;;7.93;5.13;;;;;;;-12.25;60.17;98588.41;4938569;29;20132;-77
2021/12/23 06:53:15;;;;;;;9.85;5.82;;;;;;;-12.40;60.31;98592.72;4922573;29;20047;-79
2021/12/23 06:55:42;;;;;;;17.83;4.68;;;;;;;-12.70;60.17;98566.13;4911088;29;20044;-82
2021/12/23 06:58:08;;;;;;;8.57;5.18;;;;;;;-12.65;60.80;98590.13;4887991;29;20051;-79
2021/12/23 07:00:34;;;;;;;12.07;5.32;;;;;;;-12.75;61.10;98575.53;4918629;29;20407;-83
2021/12/23 07:03:00;;;;;;;5.25;4.28;;;;;;;-12.94;61.86;98559.22;4870702;29;20054;-81
2021/12/23 07:05:27;;;;;;;7.32;4.05;;;;;;;-12.78;61.61;98562.69;4887858;29;20087;-79
2021/12/23 07:10:25;;;;;;;7.47;4.45;;;;;;;-12.75;60.72;98583.25;4903619;29;20086;-80
2021/12/23 07:12:54;;;;;;;8.88;4.53;;;;;;;-12.80;60.52;98614.16;4888702;29;20459;-80
2021/12/23 07:15:20;;;;;;;9.52;5.47;;;;;;;-12.73;61.21;98615.88;4887932;29;20103;-79
2021/12/23 07:18:11;;;;;;;5.07;4.35;;;;;;;-12.62;60.47;98618.47;4922777;29;20083;-80
2021/12/23 07:20:41;;;;;;;7.78;4.55;;;;;;;-12.51;59.61;98641.63;4903850;29;20040;-80
2021/12/23 07:23:07;;;;;;;9.05;5.30;;;;;;;-12.50;59.92;98663.94;4903391;29;20570;-80
2021/12/23 07:25:35;;;;;;;10.50;5.78;;;;;;;-12.41;59.52;98661.41;4872072;29;20059;-81
2021/12/23 07:28:01;;;;;;;5.88;4.35;;;;;;;-12.09;59.20;98673.41;4887732;29;20044;-80
2021/12/23 07:30:27;;;;;;;15.77;6.70;;;;;;;-11.92;59.08;98681.09;4872191;29;20059;-80
2021/12/23 07:32:55;;;;;;;13.52;6.25;;;;;;;-11.76;58.20;98680.22;4872194;29;20475;-80
2021/12/23 07:35:21;;;;;;;17.45;6.93;;;;;;;-11.62;57.81;98698.22;4887604;29;20048;-82
2021/12/23 07:37:47;;;;;;;10.18;5.78;;;;;;;-11.64;57.25;98695.66;4902784;29;20059;-80
2021/12/23 07:40:14;;;;;;;11.05;5.57;;;;;;;-11.64;56.91;98690.50;4871806;29;20096;-80
2021/12/23 07:42:51;;;;;;;7.28;4.10;;;;;;;-11.40;56.28;98697.31;4903199;29;20051;-80
2021/12/23 07:45:17;;;;;;;14.32;6.45;;;;;;;-11.41;56.84;98703.31;4904456;29;20043;-80
2021/12/23 07:47:43;;;;;;;8.95;5.43;;;;;;;-11.59;56.76;98699.06;4902800;29;20058;-82
2021/12/23 07:50:09;;;;;;;6.80;4.63;;;;;;;-11.60;56.86;98712.81;4887373;29;20047;-80
2021/12/23 07:52:35;;;;;;;8.90;5.38;;;;;;;-11.89;57.03;98715.47;4918878;29;20415;-83
2021/12/23 07:55:02;;;;;;;9.88;6.03;;;;;;;-12.13;57.56;98702.59;4872708;29;20044;-86
2021/12/23 07:57:28;;;;;;;10.65;6.25;;;;;;;-12.27;58.38;98705.16;4919230;29;20044;-82
2021/12/23 07:59:58;;;;;;;8.18;5.22;;;;;;;-12.08;58.12;98717.19;4918701;29;20147;-83
2021/12/23 08:02:24;;;;;;;;;;;;;;;-12.09;58.02;98727.50;4919069;29;20040;-82
2021/12/23 08:04:49;;;;;;;11.93;5.55;;;;;;;-12.28;58.16;98727.47;4903284;29;19941;-81
2021/12/23 08:07:15;;;;;;;13.52;7.07;;;;;;;-12.18;57.83;98733.50;4934498;29;20512;-80
2021/12/23 08:09:42;;;;;;;9.30;5.68;;;;;;;-12.31;58.01;98752.38;4903258;29;20047;-81
2021/12/23 08:12:08;;;;;;;8.65;5.47;;;;;;;-12.42;58.43;98741.19;4871964;29;20407;-81
2021/12/23 08:14:34;;;;;;;12.85;6.80;;;;;;;-12.33;58.58;98754.97;4856480;29;20044;-81
2021/12/23 08:17:01;;;;;;;13.52;6.72;;;;;;;-12.32;58.50;98751.53;4905493;29;20194;-81
2021/12/23 08:19:27;;;;;;;11.75;6.40;;;;;;;-12.06;58.54;98753.28;4906351;29;20134;-81
2021/12/23 08:21:52;;;;;;;11.43;6.93;;;;;;;-11.88;57.64;98768.75;4922094;29;20142;-80
2021/12/23 08:24:43;;;;;;;13.15;8.48;;;;;;;-12.08;57.02;98776.44;4913096;29;20087;-81
2021/12/23 08:27:10;;;;;;;13.45;6.57;;;;;;;-11.92;57.14;98776.44;4859982;29;20046;-81
2021/12/23 08:29:37;;;;;;;9.05;5.20;;;;;;;-11.71;56.88;98770.41;4906935;29;20044;-84
2021/12/23 08:32:04;;;;;;;9.48;5.70;;;;;;;-11.57;56.59;98774.72;4905969;29;20047;-80
2021/12/23 08:34:34;;;;;;;7.57;4.07;;;;;;;-11.65;55.76;98781.59;4874941;29;20059;-80
2021/12/23 08:37:00;;;;;;;11.90;6.43;;;;;;;-11.58;55.69;98780.75;4922135;29;20055;-81
2021/12/23 08:39:27;;;;;;;9.60;6.32;;;;;;;-11.63;55.29;98766.13;4921561;29;20043;-79
2021/12/23 08:41:54;;;;;;;16.58;5.95;;;;;;;-11.81;55.84;98754.09;4890324;29;20054;-81
2021/12/23 08:44:20;;;;;;;6.38;4.32;;;;;;;-11.93;56.13;98770.44;4874836;29;20102;-82
2021/12/23 08:46:46;;;;;;;13.60;7.47;;;;;;;-11.87;55.84;98769.59;4874788;29;20047;-81
2021/12/23 08:49:12;;;;;;;12.80;5.72;;;;;;;-11.97;55.55;98768.72;4921461;29;20507;-81
2021/12/23 08:51:40;;;;;;;9.77;6.68;;;;;;;-12.09;56.18;98769.56;4890116;29;20047;-82
2021/12/23 08:54:07;;;;;;;13.43;7.90;;;;;;;-12.09;56.87;98769.56;4937553;29;20537;-81
2021/12/23 08:56:33;;;;;;;8.45;4.70;;;;;;;-11.65;56.61;98770.44;4890167;29;20518;-81
2021/12/23 08:58:59;;;;;;;11.07;6.10;;;;;;;-11.57;55.75;98769.56;4890590;29;20130;-81
2021/12/23 09:01:25;;;;;;;12.55;6.57;;;;;;;-11.38;55.00;98779.84;4921292;29;20128;-82
2021/12/23 09:03:52;;;;;;;9.57;4.78;;;;;;;-11.20;54.44;98772.09;4874728;29;20091;-81
2021/12/23 09:06:18;;;;;;;12.60;6.85;;;;;;;-11.28;53.72;98771.25;4889817;29;20131;-82
2021/12/23 09:08:44;;;;;;;11.75;6.57;;;;;;;-11.37;53.84;98768.66;4905452;29;20514;-80
2021/12/23 09:11:10;;;;;;;16.55;6.28;;;;;;;-11.42;53.86;98778.13;4904865;29;20403;-80
2021/12/23 09:13:36;;;;;;;17.00;8.13;;;;;;;-11.34;53.89;98779.84;4920806;29;20082;-80
2021/12/23 09:16:01;;;;;;;19.17;9.02;;;;;;;-11.37;54.26;98785.00;4904939;29;20515;-80
2021/12/23 09:18:28;;;;;;;11.27;6.72;;;;;;;-11.62;54.14;98783.28;4936742;29;20040;-80
2021/12/23 09:20:54;;;;;;;17.42;8.27;;;;;;;-11.71;54.16;98794.47;4921104;29;20042;-81
2021/12/23 09:23:20;;;;;;;13.88;7.65;;;;;;;-12.00;54.40;98789.34;4889402;29;20134;-80
2021/12/23 09:25:48;;;;;;;10.48;6.03;;;;;;;-12.05;54.88;98802.22;4908077;29;20396;-81
2021/12/23 09:28:28;;;;;;;15.27;8.77;;;;;;;-11.87;57.70;98801.38;4949718;29;20047;-78
2021/12/23 09:33:40;;;;;;;13.20;6.57;;;;;;;-12.06;55.29;98810.81;4950222;29;20035;-82
2021/12/23 09:36:06;;;;;;;10.32;5.97;;;;;;;-12.18;55.39;98807.34;4926592;28;20137;-78
2021/12/23 09:38:33;;;;;;;14.13;6.45;;;;;;;-12.25;55.28;98817.66;4929009;28;20137;-86
2021/12/23 09:41:20;;;;;;;12.10;6.20;;;;;;;-11.96;56.24;98821.13;4912239;28;20450;-81
2021/12/23 09:43:47;;;;;;;10.23;5.95;;;;;;;-12.00;55.65;98820.25;4959831;28;20042;-81
2021/12/23 09:46:16;;;;;;;9.60;4.88;;;;;;;-11.92;55.69;98830.56;4927693;28;20133;-82
2021/12/23 09:48:43;;;;;;;8.63;5.15;;;;;;;-11.82;55.24;98834.84;4927721;28;20039;-80
2021/12/23 09:51:10;;;;;;;9.32;4.72;;;;;;;-11.76;55.45;98846.03;4927141;28;20049;-85
2021/12/23 09:53:40;;;;;;;8.73;5.03;;;;;;;-11.84;55.04;98846.94;4959925;28;20043;-78
2021/12/23 09:56:07;;;;;;;10.60;6.03;;;;;;;-11.85;55.54;98858.06;4927557;28;20051;-79
2021/12/23 09:58:33;;;;;;;17.80;6.72;;;;;;;-11.95;55.89;98861.50;4926965;28;20039;-80
2021/12/23 10:01:01;;;;;;;18.77;9.55;;;;;;;-11.83;56.24;98871.84;4943221;28;20042;-81
2021/12/23 10:03:30;;;;;;;;;;;;;;;-11.77;55.75;98880.41;4912374;28;20038;-82
2021/12/23 10:05:59;;;;;;;13.65;6.47;;;;;;;-11.92;55.54;98879.53;4943596;28;19940;-87
2021/12/23 10:08:29;;;;;;;9.65;5.43;;;;;;;-11.93;55.92;98875.25;4943584;28;20058;-80
2021/12/23 10:11:03;;;;;;;12.27;6.13;;;;;;;-12.02;56.29;98878.66;4926615;28;20142;-79
2021/12/23 10:30:19;;;;;;;8.80;4.72;;;;;;;-13.10;56.75;98872.16;4955177;28;20042;-82
2021/12/23 10:38:07;;;;;;;6.22;3.17;;;;;;;-13.47;57.94;98886.47;4961749;28;20059;-82
2021/12/23 10:40:33;;;;;;;12.40;4.95;;;;;;;-13.56;58.37;98912.97;4927127;28;20502;-82
2021/12/23 10:42:59;;;;;;;6.93;4.45;;;;;;;-13.76;58.46;98901.66;4958056;28;20042;-85
2021/12/23 10:45:40;;;;;;;6.13;3.72;;;;;;;-13.75;58.84;98903.38;4942678;28;20039;-83
2021/12/23 10:48:09;;;;;;;5.82;3.88;;;;;;;-13.71;59.50;98911.13;4941943;28;20405;-77
2021/12/23 10:53:06;;;;;;;6.20;3.80;;;;;;;-13.02;60.57;98921.94;4917502;28;20577;-80
2021/12/23 10:58:17;;;;;;;8.05;4.32;;;;;;;-13.34;58.96;98946.59;4947033;28;20046;-82
2021/12/23 11:00:46;;;;;;;10.20;5.30;;;;;;;-13.42;58.60;98953.34;4903013;29;20056;-83
2021/12/23 11:03:26;;;;;;;6.45;4.15;;;;;;;-13.26;58.80;98970.66;4884065;29;20052;-82
2021/12/23 11:06:06;;;;;;;13.20;5.60;;;;;;;-13.25;58.75;98962.94;4907422;29;20060;-83
2021/12/23 11:09:00;;;;;;;8.02;4.70;;;;;;;-13.21;58.89;98966.38;4932643;29;20055;-88
2021/12/23 11:44:00;;;;;;;5.95;3.95;;;;;;;-13.99;63.34;99009.28;4943671;29;19922;-87
2021/12/23 11:46:42;;;;;;;5.85;3.63;;;;;;;-14.14;63.14;98997.09;4927119;29;20050;-85
2021/12/23 11:49:10;;;;;;;2.97;2.75;;;;;;;-14.04;62.96;98993.81;4955562;28;20058;-83
2021/12/23 11:54:07;;;;;;;4.07;3.20;;;;;;;-14.22;62.92;99003.84;4934568;29;20043;-86
2021/12/23 11:56:36;;;;;;;4.82;3.55;;;;;;;-14.27;62.79;99013.22;4928575;29;20039;-89
2021/12/23 11:59:03;;;;;;;15.60;4.32;;;;;;;-14.36;62.71;99015.66;4911077;29;20043;-90
2021/12/23 12:01:30;;;;;;;6.22;3.92;;;;;;;-14.29;62.95;99009.75;4960373;28;20043;-85
2021/12/23 12:04:03;;;;;;;6.72;4.78;;;;;;;-14.35;62.61;99025.09;4960899;29;20071;-90
2021/12/23 12:06:39;;;;;;;10.10;5.55;;;;;;;-14.28;62.13;99032.03;4927328;29;20051;-87
2021/12/23 12:09:20;;;;;;;10.77;6.40;;;;;;;-14.26;62.18;99049.16;4958933;28;20102;-84
2021/12/23 12:12:10;;;;;;;6.07;4.05;;;;;;;-14.45;61.93;99045.47;4942388;29;20055;-83
2021/12/23 12:14:36;;;;;;;4.90;4.03;;;;;;;-14.59;62.31;99041.00;4965780;28;20586;-85
2021/12/23 12:17:24;;;;;;;5.90;3.78;;;;;;;-13.92;67.01;99049.59;4925821;29;20043;-83
2021/12/23 12:19:56;;;;;;;6.60;4.20;;;;;;;-14.17;62.06;99066.41;4941948;29;20047;-85
2021/12/23 12:22:52;;;;;;;9.95;5.50;;;;;;;-14.41;61.41;99064.34;4942293;29;20522;-83
2021/12/23 12:25:24;;;;;;;7.68;5.07;;;;;;;-14.59;61.52;99057.28;4941551;29;20518;-82
2021/12/23 12:27:56;;;;;;;13.10;5.40;;;;;;;-14.74;61.95;99051.88;4925965;29;20421;-85
2021/12/23 12:31:02;;;;;;;7.55;4.90;;;;;;;-14.81;62.28;99060.34;4941307;29;20058;-84
2021/12/23 12:33:33;;;;;;;7.80;4.88;;;;;;;-14.76;62.91;99064.69;4955263;29;20470;-84
2021/12/23 12:36:05;;;;;;;8.77;4.72;;;;;;;-14.87;62.34;99073.06;4974390;28;20450;-85
2021/12/23 12:38:35;;;;;;;4.78;3.42;;;;;;;-14.92;62.49;99084.97;4977689;28;20046;-86
2021/12/23 12:41:12;;;;;;;8.60;5.45;;;;;;;-15.06;62.52;99103.50;4944220;28;20518;-85
2021/12/23 12:46:10;;;;;;;6.20;4.35;;;;;;;-15.02;62.89;99097.59;4959866;28;20051;-79